Terminal Aerodrome Forecast
Issued by NWS Boston, MA

Current Version | Previous Version | Text Only | Print | Product List | Glossary On
Versions: 1 2 3 4 5 6 7 8 9 10 11 12 13 14 15 16 17 18 19 20 21
000 FTUS41 KBOX 231120 TAFORH TAF KORH 231120Z 2312/2412 34008KT P6SM FEW250 FM231900 23007KT P6SM SKC FM240200 22008KT P6SM FEW250 FM240800 26007KT P6SM FEW250=

USA.gov is the U.S. government's official web portal to all federal, state and local government web resources and services.